My Meet Scores
Aliyah Manrique, Flipstar Gymnastics Academy - MyMeetScores.com
Top100 | Top Teams | Upcoming Meets | Completed Meets | Latest | Add Scores | Help| Support | Bookmark and Share

Aliyah Manrique, Flipstar Gymnastics Academy
Personal Bests
LevelVault BarsBeamFloorAA
39.5759.300 9.5009.52537.200
49.3259.500 9.4259.45037.175
Meet Scores
Date Meet Team Session Level Division Vault Bars Beam Floor AA
2020-03-06 Illinois Level 4 State Championships Flipstar Gymnastics Academy 7 4 Sr F 9.325 2 9.475 3 9.050 16 9.325 3 37.175 2
2020-02-21 Kinetic Classic Flipstar Gymnastics Academy 06 4 Older 8.775 31 9.500 14T 9.350 20T 9.125 26T 36.750 15
2020-02-14 Big Classic Flipstar Gymnastics Academy 4B 4 Child F 8.875 9 9.450 2 9.275 20 9.450 6T 37.050 3
2020-02-07 IGI Chicago Style Meet Flipstar Gymnastics Academy 121 4 D 9.000 8T 9.150 9 8.800 9 9.200 12 36.150 10
2020-01-24 Sand Dollar Invitational 2020 Flipstar Gymnastics Academy E02 4 Sr B 9.100 4 9.275 4 9.100 2 8.775 5 36.250 2
2019-12-13 Crossroads Classic Flipstar Gymnastics Academy 2 4 Jr C 8.950 2T 9.150 2 9.425 1 9.150 1T 36.675 1
2019-12-07 Home for the Holidays 2019 Flipstar Gymnastics Academy 4 4 Sr B 8.850 6 9.450 5T 9.150 2 9.200 4 36.650 3
2019-11-08 Illinois Judges Cup Flipstar Gymnastics Academy G5 4 All Ages 8.450 24T 9.325 4T 8.650 33 9.100 8T 35.525 12
2019-03-22 Illinois Gymnastics State Championships Flipstar Gymnastics Academy 11 4 Sr D 9.050 7T 9.200 10 9.150 15T 9.100 13T 36.500 8T
2019-03-01 2019 MEGA Spring Invite Flipstar Gymnastics Academy All 4 All Ages 8.825 45T 8.500 80T 9.025 48T 8.750 82T 35.100 62
2019-02-23 Kinetic Classic 2019 Flipstar Gymnastics Academy 1 4 Older 7.950 40 8.900 25T 8.200 38T 8.675 24 33.725 37
2019-02-08 Midwest Twisters Harley Meet Womens Flipstar Gymnastics Academy T09 4 11 yrs.+ 8.600 3T 8.700 5 8.750 7 8.500 7 34.550 6
2019-01-25 King Arthur Invitational Flipstar Gymnastics Academy 1 4 Sr C 8.425 7 8.775 6 8.650 7T 8.825 8T 34.675 6
2019-01-11 Circle of Stars Gymnastics Flipstar Gymnastics Academy C06 4 Senior A 8.725 8 8.817 9 8.950 9 8.875 9 35.367 8
2018-05-03 Illinois USA Gymnastics Level 3 State Championships Flipstar Gymnastics Academy 5 3 Sr D 9.575 12T 9.300 10T 9.125 12 8.850 31 36.850 19
2018-02-23 Kinetic Classic Flipstar Gymnastics Academy 4 3 Older 9.450 6T 9.000 57T 9.275 20T 9.475 16T 37.200 19
2018-02-16 Big Classic Flipstar Gymnastics Academy 6B 3 Child D 9.225 6 9.100 13 9.500 2T 9.300 9T 37.125 5
2018-02-09 IGI Chicago Style Gymnastics Meet Flipstar Gymnastics Academy 42 3 631 LaSalle L3 D 8.900 14 8.850 8 9.275 8 9.525 2 36.550 6
2018-01-26 King Arthur Invitational Flipstar Gymnastics Academy 5 3 SR B 9.475 4 9.000 12* 9.325 6 8.900 16 36.700 10T
2018-01-19 Sand Dollar/ Whitlow Invitational Flipstar Gymnastics Academy E11 3 Sr B 9.000 9T 8.625 5 8.900 4 8.925 5 35.450 4
2017-12-08 Horton Invite At IWU Shirk Center Flipstar Gymnastics Academy All 3 Sr A 9.375 5* 9.200 3 9.250 10 8.950 8 36.775 3T
2017-11-17 SCGA Classic Flipstar Gymnastics Academy 1 3 JrC 9.325 4 8.825 6 8.650 3 9.050 3 35.850 5
2017-11-10 Illinois NAWGJ Judges Cup 2017 Flipstar Gymnastics Academy S6 3 All Ages 9.425 7T 9.000 4T 8.450 21T 8.800 34T 35.675 9
Get your scores on
a t-shirt, pin, or hoodie

www.lazysuits.com